Springville, California
Current Conditions -  °F | °C
As of 6:15 PM on Saturday 25 Oct 2014 (Local Time) from KPTV Reporting Station
Clear Clear  
Wind Chill: 75°   Ceiling: Unl
Heat Index: 75°   Visibility: 10mi
Dew Point: 45°   Wind: 3mph
Humidity: 34%   Direction: 40°NE
Pressure: 30.01"   Gusts: NA
Location:  36.13°N, 118.82°W
Report Text: KPTV 260115Z 04003KT 10SM CLR 24/07 A3001 RMK AO1
Loading
Personal Weather Stations






























Interactive Weather Map
Tropical Storm Tracking
New forecast layout! Learn more

10-Day Weather Forecast

Advertisements
Track Severe Weather on mobile